Time;durP1;ratioP1;P1;durP2;ratioP2;P2;SDS_P1;SDS_P2;PMS_P1;PMS_P2;Temp;Humidity;BMP_temperature;BMP_pressure;BME280_temperature;BME280_humidity;BME280_pressure;Samples;Min_cycle;Max_cycle;Signal;HPM_P1;HPM_P2
2022/06/05 00:01:01;;;;;;;11.30;4.17;;;;;;;15.58;72.98;100307.00;5053016;23;20222;-78
2022/06/05 00:03:33;;;;;;;6.97;3.93;;;;;;;15.63;73.25;100309.16;5067569;23;20212;-78
2022/06/05 00:06:06;;;;;;;9.03;4.43;;;;;;;15.60;72.85;100314.88;5047651;23;20208;-80
2022/06/05 00:08:47;;;;;;;7.73;4.13;;;;;;;15.53;73.33;100308.56;5078339;23;20334;-76
2022/06/05 00:11:14;;;;;;;9.73;4.30;;;;;;;15.55;73.07;100317.28;5041780;23;20200;-79
2022/06/05 00:13:48;;;;;;;9.77;4.30;;;;;;;15.45;72.96;100317.50;5038574;23;20200;-78
2022/06/05 00:16:16;;;;;;;7.77;4.00;;;;;;;15.35;73.52;100311.56;5063055;23;21558;-78
2022/06/05 00:18:45;;;;;;;9.57;4.30;;;;;;;15.33;73.65;100308.22;5056701;23;20295;-74
2022/06/05 00:21:12;;;;;;;7.07;4.37;;;;;;;15.26;73.66;100315.31;5058928;23;20206;-78
2022/06/05 00:23:39;;;;;;;9.40;4.07;;;;;;;15.28;73.55;100314.09;5050807;23;24893;-78
2022/06/05 00:26:39;;;;;;;6.87;4.03;;;;;;;15.19;73.50;100316.03;5056138;23;20271;-75
2022/06/05 00:29:17;;;;;;;9.07;4.50;;;;;;;15.16;73.66;100311.00;5065610;23;20200;-76
2022/06/05 00:31:52;;;;;;;6.33;4.50;;;;;;;15.02;73.65;100306.41;5057815;23;20338;-73
2022/06/05 00:34:19;;;;;;;7.73;4.60;;;;;;;14.93;73.79;100312.84;5055317;23;20284;-59
2022/06/05 00:36:58;;;;;;;8.47;4.47;;;;;;;15.01;73.68;100314.63;5049816;23;20208;-59
2022/06/05 00:39:32;;;;;;;8.43;4.10;;;;;;;15.01;72.75;100312.81;5055027;23;21109;-56
2022/06/05 00:42:02;;;;;;;8.90;4.10;;;;;;;14.97;72.82;100308.78;5069350;23;20204;-75
2022/06/05 00:44:47;;;;;;;9.47;4.43;;;;;;;14.86;72.54;100306.50;5054065;23;20204;-75
2022/06/05 00:47:15;;;;;;;8.23;4.07;;;;;;;14.77;72.40;100298.53;5059113;23;20208;-73
2022/06/05 00:49:48;;;;;;;10.13;4.20;;;;;;;14.71;72.63;100301.91;5087665;23;20200;-72
2022/06/05 00:52:18;;;;;;;9.63;3.80;;;;;;;14.66;72.58;100300.78;5038762;23;20264;-73
2022/06/05 00:54:45;;;;;;;7.37;3.53;;;;;;;14.69;72.26;100303.09;5095484;23;20276;-74
2022/06/05 00:57:13;;;;;;;7.23;3.60;;;;;;;14.69;71.60;100300.41;5105567;23;20239;-73
2022/06/05 00:59:42;;;;;;;9.77;3.90;;;;;;;14.59;71.86;100297.94;5057257;23;20414;-72
2022/06/05 01:02:09;;;;;;;8.07;3.77;;;;;;;14.50;72.38;100298.97;5062991;23;21281;-76
2022/06/05 01:04:37;;;;;;;8.63;3.80;;;;;;;14.39;73.08;100294.81;5063916;23;20471;-73
2022/06/05 01:07:04;;;;;;;6.43;3.97;;;;;;;14.31;72.98;100290.34;5065363;23;20968;-75
2022/06/05 01:09:31;;;;;;;9.23;3.73;;;;;;;14.31;72.59;100287.66;5056359;23;21660;-75
2022/06/05 01:12:13;;;;;;;8.10;4.10;;;;;;;14.36;72.24;100301.34;5072920;23;20210;-75
2022/06/05 01:14:45;;;;;;;6.47;3.80;;;;;;;14.23;72.37;100293.03;5065101;23;20199;-74
2022/06/05 01:17:35;;;;;;;10.73;3.47;;;;;;;14.24;72.05;100281.31;5053598;23;20202;-76
2022/06/05 01:20:01;;;;;;;9.87;3.63;;;;;;;14.26;71.57;100290.03;5062243;23;21698;-76
2022/06/05 01:22:58;;;;;;;6.90;3.20;;;;;;;14.25;71.59;100288.34;5060805;23;20206;-77
2022/06/05 01:25:59;;;;;;;6.83;3.50;;;;;;;14.15;71.37;100282.34;5068622;23;20258;-74
2022/06/05 01:28:33;;;;;;;6.83;3.87;;;;;;;14.10;71.82;100284.72;5043639;23;20263;-74
2022/06/05 01:31:10;;;;;;;6.63;3.53;;;;;;;14.04;71.81;100277.38;5055784;23;20364;-76
2022/06/05 01:33:41;;;;;;;6.67;3.67;;;;;;;13.97;71.95;100284.41;5054591;23;20251;-75
2022/06/05 01:36:24;;;;;;;6.87;3.57;;;;;;;13.99;71.62;100280.56;5069545;23;20214;-75
2022/06/05 01:38:57;;;;;;;7.13;3.27;;;;;;;14.02;71.48;100287.41;5083067;23;20206;-76
2022/06/05 01:41:36;;;;;;;6.47;3.20;;;;;;;13.92;72.63;100295.63;5048975;23;20210;-76
2022/06/05 01:44:11;;;;;;;7.50;3.17;;;;;;;13.86;72.34;100306.97;5064283;23;22626;-75
2022/06/05 01:46:38;;;;;;;8.33;3.63;;;;;;;13.83;72.70;100304.66;5047392;23;20278;-74
2022/06/05 01:49:16;;;;;;;6.30;3.70;;;;;;;13.79;72.94;100309.53;5051069;23;20208;-75
2022/06/05 01:51:48;;;;;;;5.77;3.93;;;;;;;13.86;72.47;100312.34;5058431;23;20207;-75
2022/06/05 01:54:19;;;;;;;8.53;4.07;;;;;;;13.73;72.85;100319.03;5049969;23;20204;-76
2022/06/05 01:56:50;;;;;;;8.53;4.03;;;;;;;13.70;73.39;100322.06;5057622;23;20510;-77
2022/06/05 01:59:26;;;;;;;10.40;4.97;;;;;;;13.61;73.97;100323.06;5047367;23;20204;-74
2022/06/05 02:01:57;;;;;;;8.43;4.50;;;;;;;13.65;73.13;100318.19;5040677;23;20207;-75
2022/06/05 02:04:34;;;;;;;8.67;4.13;;;;;;;13.62;73.82;100324.72;5042523;23;20203;-75
2022/06/05 02:07:09;;;;;;;9.30;4.43;;;;;;;13.54;73.63;100318.56;5049797;23;22012;-74
2022/06/05 02:09:46;;;;;;;10.30;4.80;;;;;;;13.50;73.67;100320.72;5072800;23;20211;-75
2022/06/05 02:12:13;;;;;;;6.40;4.07;;;;;;;13.52;73.34;100327.56;5046228;23;20948;-75
2022/06/05 02:14:42;;;;;;;11.37;4.57;;;;;;;13.51;73.15;100323.25;5042908;23;20243;-75
2022/06/05 02:17:10;;;;;;;7.23;4.10;;;;;;;13.52;71.77;100334.75;5060696;23;20374;-75
2022/06/05 02:19:36;;;;;;;10.63;4.23;;;;;;;13.47;71.73;100342.44;5055048;23;20315;-76
2022/06/05 02:22:08;;;;;;;7.63;4.40;;;;;;;13.52;71.04;100350.81;5059495;23;20203;-75
2022/06/05 02:24:34;;;;;;;8.67;4.20;;;;;;;13.53;70.22;100347.13;5070170;23;21297;-75
2022/06/05 02:27:03;;;;;;;6.73;3.97;;;;;;;13.58;69.85;100346.63;5046246;23;20207;-75
2022/06/05 02:29:30;;;;;;;9.20;3.77;;;;;;;13.53;69.55;100352.47;5032643;23;20543;-74
2022/06/05 02:31:59;;;;;;;7.50;3.37;;;;;;;13.52;69.33;100356.16;5053214;23;20420;-78
2022/06/05 02:34:36;;;;;;;5.23;3.30;;;;;;;13.44;69.46;100345.47;5096390;23;20275;-75
2022/06/05 02:37:24;;;;;;;5.30;3.60;;;;;;;13.46;68.70;100349.63;5034234;23;20265;-75
2022/06/05 02:40:11;;;;;;;8.27;3.60;;;;;;;13.47;68.91;100348.63;5018162;23;20945;-77
2022/06/05 02:42:42;;;;;;;5.37;3.53;;;;;;;13.50;68.39;100356.31;5056579;23;20230;-75
2022/06/05 02:45:23;;;;;;;7.70;3.73;;;;;;;13.56;68.39;100354.81;5048948;23;20223;-75
2022/06/05 02:48:08;;;;;;;6.47;3.80;;;;;;;13.58;68.63;100357.31;5091926;23;25121;-76
2022/06/05 02:50:52;;;;;;;8.83;3.70;;;;;;;13.52;68.28;100359.66;5090825;23;20657;-77
2022/06/05 02:53:19;;;;;;;5.73;3.47;;;;;;;13.59;68.38;100361.66;5079938;23;20208;-78
2022/06/05 02:55:45;;;;;;;6.37;3.80;;;;;;;13.71;67.43;100366.50;5049724;23;21314;-77
2022/06/05 02:58:13;;;;;;;6.97;3.57;;;;;;;13.63;67.41;100376.38;5078441;23;20259;-77
2022/06/05 03:00:40;;;;;;;4.67;3.20;;;;;;;13.70;67.53;100380.06;5072128;23;20238;-77
2022/06/05 03:05:52;;;;;;;7.93;3.63;;;;;;;13.94;66.80;100384.56;5069342;23;20207;-79
2022/06/05 03:08:20;;;;;;;8.40;3.90;;;;;;;13.84;67.48;100387.41;5046680;23;20211;-76
2022/06/05 03:10:46;;;;;;;5.30;3.77;;;;;;;13.64;67.47;100386.06;5056920;23;23311;-77
2022/06/05 03:13:13;;;;;;;6.33;4.00;;;;;;;13.62;67.35;100383.53;5048025;23;20468;-75
2022/06/05 03:15:43;;;;;;;7.37;4.20;;;;;;;13.51;68.29;100387.41;5068623;23;20204;-78
2022/06/05 03:18:13;;;;;;;7.37;3.70;;;;;;;13.55;67.82;100393.25;5059691;23;20271;-77
2022/06/05 03:20:40;;;;;;;6.57;3.57;;;;;;;13.55;67.76;100387.88;5032743;23;20204;-78
2022/06/05 03:23:09;;;;;;;7.47;3.90;;;;;;;13.52;68.20;100377.53;5051714;23;21739;-77
2022/06/05 03:25:39;;;;;;;5.83;3.73;;;;;;;13.53;68.50;100384.53;5012891;23;20215;-76
2022/06/05 03:28:07;;;;;;;6.47;3.80;;;;;;;13.45;68.81;100388.03;5008871;23;23837;-76
2022/06/05 03:30:36;;;;;;;9.63;4.10;;;;;;;13.35;70.02;100378.53;5010093;23;20216;-77
2022/06/05 03:33:03;;;;;;;5.17;3.50;;;;;;;13.22;70.23;100376.28;5010954;23;20200;-78
2022/06/05 03:35:29;;;;;;;8.30;4.43;;;;;;;13.29;69.91;100385.34;5045209;23;20213;-76
2022/06/05 03:37:56;;;;;;;7.53;3.83;;;;;;;13.39;70.05;100394.06;5060782;23;20625;-76
2022/06/05 03:40:22;;;;;;;9.10;4.57;;;;;;;13.35;70.49;100395.41;5023287;23;20212;-77
2022/06/05 03:42:50;;;;;;;8.77;3.97;;;;;;;13.40;70.61;100401.06;4996222;23;22118;-77
2022/06/05 03:45:17;;;;;;;6.57;4.13;;;;;;;13.42;70.74;100403.59;5034360;23;20201;-76
2022/06/05 03:47:44;;;;;;;11.90;4.40;;;;;;;13.48;70.32;100411.78;5007977;23;20289;-76
2022/06/05 03:50:12;;;;;;;5.83;3.83;;;;;;;13.54;70.09;100406.78;4993703;23;20270;-76
2022/06/05 03:52:38;;;;;;;6.17;4.20;;;;;;;13.57;69.90;100411.78;5014762;23;23333;-77
2022/06/05 03:55:05;;;;;;;7.27;4.40;;;;;;;13.41;70.52;100420.63;5008636;23;22288;-76
2022/06/05 03:57:32;;;;;;;10.17;4.90;;;;;;;13.51;70.06;100415.97;5005428;23;20246;-78
2022/06/05 03:59:58;;;;;;;6.30;4.50;;;;;;;13.57;70.49;100417.16;5010027;23;21038;-76
2022/06/05 04:02:25;;;;;;;8.00;5.00;;;;;;;13.58;69.79;100413.47;5012105;23;20213;-75
2022/06/05 04:04:52;;;;;;;9.17;5.10;;;;;;;13.47;70.62;100417.31;5006445;23;20274;-78
2022/06/05 04:07:19;;;;;;;9.67;4.93;;;;;;;13.48;70.67;100417.13;5017194;23;21198;-77
2022/06/05 04:09:46;;;;;;;6.87;4.60;;;;;;;13.62;70.39;100417.47;5003051;23;20216;-77
2022/06/05 04:12:12;;;;;;;14.77;5.70;;;;;;;13.57;70.02;100415.31;5033276;23;20998;-77
2022/06/05 04:14:39;;;;;;;10.27;5.47;;;;;;;13.59;69.47;100420.50;5010386;23;21532;-75
2022/06/05 04:17:06;;;;;;;9.60;5.17;;;;;;;13.58;69.65;100417.00;5006214;23;20211;-77
2022/06/05 04:19:32;;;;;;;7.87;4.53;;;;;;;13.49;69.07;100410.78;5017172;23;20205;-78
2022/06/05 04:22:00;;;;;;;8.17;4.57;;;;;;;13.59;68.74;100425.84;4995775;23;20286;-76
2022/06/05 04:24:26;;;;;;;7.73;4.33;;;;;;;13.73;67.97;100422.50;5000792;23;25946;-77
2022/06/05 04:26:53;;;;;;;8.37;4.43;;;;;;;13.91;67.09;100417.84;5021987;23;20217;-77
2022/06/05 04:29:19;;;;;;;8.67;4.33;;;;;;;13.76;67.57;100422.16;5029808;23;20209;-77
2022/06/05 04:31:46;;;;;;;6.67;4.20;;;;;;;13.76;66.62;100427.53;5026260;23;20209;-76
2022/06/05 04:34:17;;;;;;;8.70;4.73;;;;;;;13.83;66.37;100433.88;5001519;23;20233;-77
2022/06/05 04:36:44;;;;;;;8.67;4.53;;;;;;;13.77;66.47;100426.53;5018816;23;20209;-76
2022/06/05 04:39:10;;;;;;;10.80;4.97;;;;;;;13.67;65.56;100433.84;5015825;23;20264;-77
2022/06/05 04:41:38;;;;;;;7.10;4.70;;;;;;;13.60;67.44;100432.84;5021257;23;20208;-76
2022/06/05 04:44:05;;;;;;;6.77;4.40;;;;;;;13.62;66.69;100430.84;5016178;23;25017;-76
2022/06/05 04:46:33;;;;;;;8.97;4.37;;;;;;;13.69;66.69;100435.38;5015613;23;22347;-76
2022/06/05 04:49:00;;;;;;;7.57;4.03;;;;;;;13.65;67.71;100436.72;4995342;23;20284;-75
2022/06/05 04:51:27;;;;;;;6.77;4.23;;;;;;;13.90;66.19;100440.22;5025367;23;20209;-75
2022/06/05 04:53:54;;;;;;;6.27;4.23;;;;;;;13.92;66.03;100438.22;5007148;23;20253;-75
2022/06/05 04:56:24;;;;;;;9.40;4.63;;;;;;;13.99;66.21;100434.91;5023014;23;21716;-76
2022/06/05 04:58:51;;;;;;;9.00;4.47;;;;;;;14.06;66.19;100446.59;5025199;23;20205;-77
2022/06/05 05:01:22;;;;;;;11.17;4.57;;;;;;;14.07;65.46;100446.44;5006995;23;20367;-75
2022/06/05 05:03:52;;;;;;;10.90;5.13;;;;;;;14.12;65.89;100446.78;5022700;23;20285;-76
2022/06/05 05:06:19;;;;;;;6.27;4.70;;;;;;;14.18;65.52;100444.44;5020943;23;20624;-75
2022/06/05 05:08:45;;;;;;;6.20;4.37;;;;;;;14.39;64.12;100449.25;5018596;23;20209;-75
2022/06/05 05:11:12;;;;;;;7.40;4.60;;;;;;;14.47;63.20;100449.22;5004828;23;20206;-75
2022/06/05 05:13:38;;;;;;;6.67;3.73;;;;;;;14.58;60.75;100448.91;5012151;23;20265;-75
2022/06/05 05:16:05;;;;;;;7.13;3.97;;;;;;;14.75;60.26;100455.91;5053571;23;20205;-75
2022/06/05 05:18:32;;;;;;;5.03;3.83;;;;;;;14.96;60.46;100451.81;5060521;23;20611;-76
2022/06/05 05:21:10;;;;;;;6.10;3.90;;;;;;;15.14;58.70;100451.59;5028645;23;20216;-75
2022/06/05 05:23:37;;;;;;;6.60;3.90;;;;;;;15.23;58.47;100453.22;5042938;23;20830;-76
2022/06/05 05:26:16;;;;;;;6.50;3.70;;;;;;;15.48;57.65;100445.88;5051509;23;21631;-75
2022/06/05 05:28:43;;;;;;;5.30;3.70;;;;;;;15.93;56.51;100455.00;5013426;23;20269;-76
2022/06/05 05:31:13;;;;;;;6.73;3.93;;;;;;;16.32;54.24;100464.75;5053328;23;20212;-75
2022/06/05 05:33:41;;;;;;;5.13;3.53;;;;;;;16.62;52.81;100462.94;5028798;23;22171;-76
2022/06/05 05:36:08;;;;;;;6.60;4.27;;;;;;;16.81;52.03;100464.28;5008211;23;20597;-75
2022/06/05 05:38:36;;;;;;;8.30;3.90;;;;;;;17.18;51.70;100467.03;5031021;23;20717;-75
2022/06/05 05:43:48;;;;;;;6.47;3.90;;;;;;;18.11;48.86;100477.00;5040092;23;22654;-75
2022/06/05 05:46:16;;;;;;;4.87;3.43;;;;;;;18.69;47.89;100484.09;5003960;23;20233;-75
2022/06/05 05:48:42;;;;;;;5.83;3.90;;;;;;;19.47;45.50;100483.91;5053925;23;20215;-74
2022/06/05 05:51:11;;;;;;;6.43;3.30;;;;;;;20.59;43.13;100495.97;5041231;23;20264;-75
2022/06/05 05:53:38;;;;;;;8.27;4.20;;;;;;;21.15;41.66;100494.59;5051583;23;20217;-76
2022/06/05 05:56:06;;;;;;;8.63;4.10;;;;;;;21.86;39.91;100497.22;5036964;23;20219;-75
2022/06/05 05:58:33;;;;;;;9.97;4.83;;;;;;;22.25;38.81;100505.34;5036240;23;20208;-74
2022/06/05 06:01:01;;;;;;;9.23;4.10;;;;;;;22.45;38.63;100499.72;5019357;23;20667;-75
2022/06/05 06:03:28;;;;;;;7.17;3.97;;;;;;;23.65;36.56;100510.16;5022850;23;20209;-76
2022/06/05 06:05:56;;;;;;;7.67;3.90;;;;;;;24.07;34.65;100512.09;5042777;23;20232;-75
2022/06/05 06:08:23;;;;;;;8.00;3.93;;;;;;;22.71;37.08;100504.09;5035964;23;20209;-75
2022/06/05 06:10:50;;;;;;;6.80;3.63;;;;;;;23.01;36.75;100509.66;5070009;23;21519;-73
2022/06/05 06:13:16;;;;;;;7.30;3.50;;;;;;;24.15;35.13;100514.50;5065960;23;21071;-74
2022/06/05 06:15:43;;;;;;;6.07;3.60;;;;;;;24.55;33.86;100511.16;5040678;23;20205;-74
2022/06/05 06:18:10;;;;;;;6.57;3.80;;;;;;;25.10;32.98;100521.69;5035470;23;20736;-74
2022/06/05 06:20:36;;;;;;;5.90;3.53;;;;;;;25.76;32.16;100524.13;5033415;23;20401;-75
2022/06/05 06:23:03;;;;;;;7.13;3.40;;;;;;;26.61;30.56;100527.84;5043954;23;20204;-74
2022/06/05 06:25:29;;;;;;;7.85;4.25;;;;;;;26.66;30.17;100525.19;5017207;23;20220;-74
2022/06/05 06:27:56;;;;;;;9.65;3.85;;;;;;;25.67;32.38;100521.78;5024670;23;20299;-75
2022/06/05 06:30:23;;;;;;;9.13;3.97;;;;;;;26.26;30.99;100524.25;5013093;23;22850;-73
2022/06/05 06:32:49;;;;;;;6.05;3.63;;;;;;;26.18;30.09;100526.56;5022753;23;20616;-76
2022/06/05 06:35:16;;;;;;;5.47;3.93;;;;;;;25.70;31.48;100532.19;5025869;23;20205;-73
2022/06/05 06:37:42;;;;;;;6.70;3.58;;;;;;;26.55;30.15;100523.38;5041974;23;21972;-74
2022/06/05 06:40:09;;;;;;;10.57;3.85;;;;;;;26.07;30.63;100523.66;5062504;23;20520;-73
2022/06/05 06:42:36;;;;;;;5.32;3.60;;;;;;;26.98;29.25;100532.78;5025804;23;21205;-62
2022/06/05 06:45:03;;;;;;;8.32;3.63;;;;;;;28.02;27.28;100540.06;5120584;23;22794;-79
2022/06/05 06:47:29;;;;;;;8.52;3.90;;;;;;;27.09;28.81;100531.81;5083525;23;21879;-81
2022/06/05 06:49:56;;;;;;;5.30;3.47;;;;;;;28.35;26.97;100539.03;5023646;23;20333;-82
2022/06/05 06:52:22;;;;;;;4.10;3.13;;;;;;;28.17;27.51;100529.28;5036234;23;20542;-80
2022/06/05 06:54:50;;;;;;;5.97;3.67;;;;;;;28.30;26.67;100527.19;5088047;23;20201;-81
2022/06/05 06:57:17;;;;;;;6.55;3.95;;;;;;;28.28;26.54;100538.41;5042549;23;20201;-78
2022/06/05 06:59:43;;;;;;;4.93;3.33;;;;;;;27.61;28.15;100528.69;5042212;23;21796;-79
2022/06/05 07:02:10;;;;;;;6.60;3.30;;;;;;;28.08;27.33;100541.78;5063313;23;20268;-76
2022/06/05 07:04:36;;;;;;;7.85;3.47;;;;;;;27.61;28.25;100533.34;5057185;23;21608;-79
2022/06/05 07:07:03;;;;;;;5.70;2.65;;;;;;;29.15;26.12;100535.50;5059375;23;25117;-76
2022/06/05 07:09:32;;;;;;;6.70;3.40;;;;;;;29.30;25.97;100532.84;5069124;23;20212;-75
2022/06/05 07:11:59;;;;;;;7.85;3.75;;;;;;;29.93;25.22;100530.06;5062057;23;20262;-74
2022/06/05 07:14:26;;;;;;;6.40;3.33;;;;;;;29.18;25.65;100530.31;5021172;23;20210;-73
2022/06/05 07:16:54;;;;;;;5.97;3.55;;;;;;;28.86;26.08;100522.16;5079366;23;20748;-81
2022/06/05 07:19:21;;;;;;;4.53;3.25;;;;;;;27.07;28.61;100501.22;5084227;23;20556;-76
2022/06/05 07:21:48;;;;;;;7.35;3.58;;;;;;;26.24;29.51;100495.56;5091793;23;20254;-81
2022/06/05 07:24:16;;;;;;;7.67;3.93;;;;;;;25.57;31.01;100497.06;5061387;23;23206;-80
2022/06/05 07:26:43;;;;;;;5.93;3.67;;;;;;;25.10;32.08;100489.00;5097937;23;22733;-87
2022/06/05 07:29:09;;;;;;;6.43;3.40;;;;;;;24.33;33.48;100484.50;5086729;23;20207;-80
2022/06/05 07:31:41;;;;;;;8.53;3.40;;;;;;;24.22;33.31;100488.84;5132909;23;20354;-76
2022/06/05 07:34:09;;;;;;;6.67;3.63;;;;;;;23.67;34.45;100475.44;5134995;23;20454;-74
2022/06/05 07:36:35;;;;;;;8.53;3.60;;;;;;;23.75;34.46;100477.84;5112874;23;20530;-80
2022/06/05 07:39:03;;;;;;;5.47;3.70;;;;;;;24.09;34.00;100478.19;5075989;23;20205;-80
2022/06/05 07:41:33;;;;;;;8.20;3.60;;;;;;;23.66;34.58;100475.66;5101460;23;20275;-82
2022/06/05 07:44:00;;;;;;;7.70;3.60;;;;;;;23.91;34.59;100479.09;5058653;23;20257;-57
2022/06/05 07:46:29;;;;;;;4.60;3.00;;;;;;;23.66;34.83;100483.81;5096721;23;21309;-71
2022/06/05 07:48:56;;;;;;;5.10;3.20;;;;;;;23.87;34.80;100485.22;5070893;23;22811;-71
2022/06/05 07:54:27;;;;;;;6.50;3.20;;;;;;;23.18;34.93;100480.88;5083454;23;20455;-73
2022/06/05 07:56:58;;;;;;;5.47;3.33;;;;;;;23.56;34.39;100484.38;5061721;23;20209;-69
2022/06/05 07:59:29;;;;;;;5.63;2.97;;;;;;;23.95;34.64;100483.00;5051874;23;20482;-71
2022/06/05 08:01:58;;;;;;;5.60;3.20;;;;;;;23.71;34.53;100483.94;5055379;23;21208;-71
2022/06/05 08:04:26;;;;;;;5.37;3.00;;;;;;;23.67;34.28;100477.31;5062017;23;20205;-69
2022/06/05 08:06:55;;;;;;;5.67;3.60;;;;;;;22.62;36.29;100479.16;5097519;23;20725;-70
2022/06/05 08:09:21;;;;;;;8.37;3.63;;;;;;;22.79;36.59;100473.13;5102425;23;20223;-70
2022/06/05 08:11:48;;;;;;;7.07;3.30;;;;;;;22.90;36.56;100467.78;5110367;23;21706;-70
2022/06/05 08:14:15;;;;;;;7.03;3.20;;;;;;;22.89;36.65;100468.00;5113837;23;20203;-68
2022/06/05 08:16:43;;;;;;;6.23;3.30;;;;;;;22.53;37.19;100475.06;5070395;23;21413;-69
2022/06/05 08:19:12;;;;;;;6.07;3.40;;;;;;;22.52;36.48;100463.38;5111688;23;20512;-70
2022/06/05 08:21:40;;;;;;;6.37;3.40;;;;;;;22.27;38.22;100457.16;5086586;23;20239;-68
2022/06/05 08:24:07;;;;;;;4.20;2.63;;;;;;;22.64;37.75;100466.19;5127046;23;20349;-67
2022/06/05 08:26:34;;;;;;;5.10;3.27;;;;;;;22.63;36.54;100464.53;5078126;23;21533;-68
2022/06/05 08:29:02;;;;;;;7.07;2.83;;;;;;;23.27;35.74;100464.25;5066801;23;20214;-68
2022/06/05 08:31:29;;;;;;;4.93;3.40;;;;;;;23.35;34.85;100466.69;5090748;23;20202;-68
2022/06/05 08:34:01;;;;;;;14.03;4.07;;;;;;;23.09;35.32;100473.25;5082012;23;20455;-70
2022/06/05 08:36:28;;;;;;;5.30;2.40;;;;;;;22.78;34.68;100469.59;5068832;23;21376;-69
2022/06/05 08:41:49;;;;;;;5.53;2.80;;;;;;;22.70;35.25;100464.47;5106004;23;21606;-69
2022/06/05 08:44:26;;;;;;;6.37;3.03;;;;;;;22.37;37.61;100462.06;5074201;23;22552;-69
2022/06/05 08:46:56;;;;;;;4.07;2.40;;;;;;;22.25;36.05;100462.78;5036058;23;21180;-70
2022/06/05 08:49:32;;;;;;;3.73;2.23;;;;;;;22.38;36.10;100455.56;5082358;23;20254;-68
2022/06/05 08:52:27;;;;;;;6.67;2.93;;;;;;;22.65;35.92;100459.69;5062509;23;20948;-67
2022/06/05 08:55:15;;;;;;;5.30;3.03;;;;;;;22.66;36.81;100449.69;5054681;23;20200;-69
2022/06/05 08:58:15;;;;;;;5.77;2.80;;;;;;;22.79;36.69;100451.44;5054204;23;20203;-70
2022/06/05 09:00:45;;;;;;;6.13;3.40;;;;;;;22.72;37.57;100457.75;5072664;23;20699;-69
2022/06/05 09:03:22;;;;;;;7.33;3.70;;;;;;;22.88;36.83;100450.91;5001772;23;20384;-69
2022/06/05 09:05:55;;;;;;;4.83;3.20;;;;;;;22.19;37.95;100454.66;5058841;23;20263;-70
2022/06/05 09:08:33;;;;;;;4.17;2.93;;;;;;;21.75;38.81;100448.31;5054017;23;21165;-67
2022/06/05 09:11:03;;;;;;;9.23;2.60;;;;;;;21.91;36.52;100451.34;5053441;23;21154;-66
2022/06/05 09:13:58;;;;;;;3.13;2.50;;;;;;;22.11;36.50;100450.34;5063882;23;21469;-71
2022/06/05 09:16:29;;;;;;;5.93;3.17;;;;;;;21.86;36.69;100443.03;5045279;23;20213;-69
2022/06/05 09:18:57;;;;;;;5.33;3.10;;;;;;;21.63;37.18;100440.03;5044555;23;22234;-67
2022/06/05 09:21:26;;;;;;;8.10;3.63;;;;;;;21.68;39.32;100446.50;5070483;23;20281;-68
2022/06/05 09:24:05;;;;;;;4.30;2.63;;;;;;;22.07;37.26;100451.84;5048041;23;23065;-68
2022/06/05 09:26:42;;;;;;;5.37;2.60;;;;;;;22.14;36.08;100439.88;5071825;23;22130;-68
2022/06/05 09:29:23;;;;;;;4.43;2.60;;;;;;;22.37;35.07;100453.94;5047836;23;20207;-68
2022/06/05 09:32:09;;;;;;;3.63;2.60;;;;;;;22.52;35.58;100457.09;5048143;23;20205;-68
2022/06/05 09:34:42;;;;;;;5.23;2.40;;;;;;;22.33;35.16;100454.34;5061980;23;21368;-68
2022/06/05 09:37:16;;;;;;;5.03;2.40;;;;;;;22.08;35.42;100451.63;5041684;23;20204;-68
2022/06/05 09:39:47;;;;;;;5.03;2.70;;;;;;;21.86;36.35;100453.84;5056308;23;20203;-68
2022/06/05 09:42:48;;;;;;;6.33;2.37;;;;;;;21.71;37.11;100446.03;5095784;23;20200;-68
2022/06/05 09:45:17;;;;;;;4.70;2.90;;;;;;;21.74;36.49;100450.19;5089810;23;20401;-67
2022/06/05 09:48:01;;;;;;;5.07;2.60;;;;;;;21.82;37.84;100446.38;5078282;23;20207;-67
2022/06/05 09:50:29;;;;;;;3.33;2.27;;;;;;;21.73;35.78;100443.13;5071328;23;20471;-68
2022/06/05 09:52:56;;;;;;;3.40;2.20;;;;;;;22.21;34.43;100456.13;5062673;23;20207;-69
2022/06/05 09:55:41;;;;;;;6.13;2.40;;;;;;;22.46;33.89;100444.47;5082284;23;20210;-68
2022/06/05 09:58:36;;;;;;;7.10;2.47;;;;;;;22.60;33.40;100451.41;5078786;23;22791;-69
2022/06/05 10:01:22;;;;;;;4.70;2.60;;;;;;;22.48;33.88;100450.50;5058628;23;20214;-69
2022/06/05 10:03:49;;;;;;;5.13;2.70;;;;;;;22.46;32.47;100445.28;5011360;23;20224;-72
2022/06/05 10:06:37;;;;;;;8.27;2.70;;;;;;;22.44;33.89;100443.84;5045611;23;20291;-72
2022/06/05 10:09:14;;;;;;;5.43;2.37;;;;;;;22.60;34.70;100450.59;5077376;23;21157;-70
2022/06/05 10:11:58;;;;;;;7.23;2.70;;;;;;;22.62;33.90;100452.03;5089463;23;20259;-69
2022/06/05 10:14:41;;;;;;;7.70;2.40;;;;;;;22.63;33.65;100450.94;5081350;23;23496;-72
2022/06/05 10:17:35;;;;;;;5.33;2.40;;;;;;;22.14;33.68;100445.31;5082045;23;21419;-69
2022/06/05 10:20:07;;;;;;;4.87;2.20;;;;;;;22.45;34.89;100449.06;5118404;23;21005;-69
2022/06/05 10:22:39;;;;;;;5.50;1.90;;;;;;;22.08;33.03;100450.81;5104572;23;21531;-67
2022/06/05 10:25:06;;;;;;;3.23;2.50;;;;;;;22.07;34.80;100451.84;5050670;23;20276;-68
2022/06/05 10:27:34;;;;;;;5.07;2.00;;;;;;;22.08;33.76;100448.09;5060386;23;20200;-69
2022/06/05 10:30:01;;;;;;;2.77;1.97;;;;;;;22.08;32.81;100451.63;5044043;23;21179;-68
2022/06/05 10:32:57;;;;;;;4.07;2.03;;;;;;;22.24;33.15;100447.56;5070587;23;20211;-69
2022/06/05 10:35:53;;;;;;;3.50;2.10;;;;;;;22.16;33.19;100453.22;5059790;23;20282;-63
2022/06/05 10:38:55;;;;;;;5.63;2.33;;;;;;;22.45;32.79;100448.22;5063840;23;20304;-59
2022/06/05 10:41:34;;;;;;;6.73;2.10;;;;;;;22.48;31.33;100451.31;5054237;23;20601;-65
2022/06/05 10:44:16;;;;;;;3.43;2.10;;;;;;;22.30;33.32;100449.38;5070140;23;21854;-72
2022/06/05 10:47:17;;;;;;;4.17;2.37;;;;;;;22.21;31.82;100445.28;5065207;23;20310;-75
2022/06/05 10:49:59;;;;;;;4.47;2.13;;;;;;;22.11;34.40;100442.22;5056899;23;22014;-71
2022/06/05 10:52:26;;;;;;;3.80;1.93;;;;;;;22.14;34.12;100444.47;5088389;23;21553;-74
2022/06/05 10:55:18;;;;;;;2.80;2.00;;;;;;;22.35;33.70;100443.28;5104156;23;21406;-74
2022/06/05 10:58:03;;;;;;;4.73;2.10;;;;;;;22.40;33.44;100448.06;5056004;23;22728;-73
2022/06/05 11:00:38;;;;;;;5.13;2.07;;;;;;;22.61;32.98;100439.50;5061520;23;22294;-74
2022/06/05 11:03:53;;;;;;;2.50;2.20;;;;;;;22.76;32.93;100439.16;5080068;23;20378;-74
2022/06/05 11:06:28;;;;;;;2.70;1.90;;;;;;;22.77;29.30;100444.34;5064189;23;21151;-74
2022/06/05 11:09:28;;;;;;;5.60;1.80;;;;;;;22.90;30.41;100443.38;5045626;23;20215;-76
2022/06/05 11:15:39;;;;;;;3.27;2.10;;;;;;;23.01;30.61;100428.22;5005661;23;20542;-75
2022/06/05 11:18:23;;;;;;;4.57;2.30;;;;;;;22.94;29.94;100438.31;5030311;23;20242;-74
2022/06/05 11:20:59;;;;;;;9.10;2.63;;;;;;;22.96;30.52;100422.63;5081587;23;22411;-75
2022/06/05 11:23:29;;;;;;;3.63;2.40;;;;;;;22.95;29.34;100429.13;4995971;23;20314;-77
2022/06/05 11:26:04;;;;;;;3.03;2.00;;;;;;;22.86;30.04;100425.06;5046415;23;20205;-73
2022/06/05 11:29:10;;;;;;;4.60;1.70;;;;;;;22.80;30.69;100420.53;5057736;23;20216;-73
2022/06/05 11:31:59;;;;;;;5.20;2.10;;;;;;;23.26;30.50;100419.16;5053069;23;22622;-75
2022/06/05 11:34:51;;;;;;;3.87;2.07;;;;;;;23.33;30.21;100422.63;5069283;23;20459;-75
2022/06/05 11:37:24;;;;;;;4.13;2.37;;;;;;;23.60;30.48;100423.91;5074372;23;20578;-76
2022/06/05 11:40:23;;;;;;;5.67;2.37;;;;;;;23.82;28.89;100415.25;5058030;23;20421;-72
2022/06/05 11:43:29;;;;;;;4.70;2.30;;;;;;;23.91;30.25;100416.56;5055062;23;20209;-72
2022/06/05 11:46:23;;;;;;;7.13;2.40;;;;;;;23.73;28.88;100419.34;5045914;23;22215;-71
2022/06/05 11:49:06;;;;;;;3.93;1.80;;;;;;;23.95;27.96;100411.47;5031007;23;20272;-73
2022/06/05 11:52:15;;;;;;;3.60;2.03;;;;;;;24.14;28.84;100414.94;5040140;23;20207;-74
2022/06/05 11:55:12;;;;;;;4.60;2.30;;;;;;;24.05;30.47;100405.50;5038984;23;20257;-73
2022/06/05 11:58:00;;;;;;;4.13;2.33;;;;;;;24.09;29.17;100404.78;5050748;23;20257;-71
2022/06/05 12:00:32;;;;;;;4.80;2.47;;;;;;;23.38;30.17;100391.00;5056307;23;22818;-71
2022/06/05 12:03:18;;;;;;;5.03;2.27;;;;;;;23.54;30.70;100389.50;5054632;23;20205;-72
2022/06/05 12:05:54;;;;;;;2.80;2.07;;;;;;;23.67;30.94;100387.66;5029956;23;20215;-72